Time;durP1;ratioP1;P1;durP2;ratioP2;P2;SDS_P1;SDS_P2;PMS_P1;PMS_P2;Temp;Humidity;BMP_temperature;BMP_pressure;BME280_temperature;BME280_humidity;BME280_pressure;Samples;Min_cycle;Max_cycle;Signal;HPM_P1;HPM_P2
2024/02/06 00:00:38;;;;;;;;;;;-0.20;99.90;;;;;;5055981;28;20383;-66
2024/02/06 00:03:05;;;;;;;;;;;-0.20;99.90;;;;;;5054883;28;19925;-60
2024/02/06 00:05:32;;;;;;;;;;;-0.30;99.90;;;;;;5055228;28;19933;-61
2024/02/06 00:07:59;;;;;;;;;;;-0.30;99.90;;;;;;5054395;28;20015;-60
2024/02/06 00:10:26;;;;;;;;;;;-0.30;99.90;;;;;;5051905;28;19924;-64
2024/02/06 00:12:52;;;;;;;;;;;-0.30;99.90;;;;;;5054250;28;19933;-59
2024/02/06 00:15:19;;;;;;;;;;;-0.30;99.90;;;;;;5052830;28;19959;-66
2024/02/06 00:17:46;;;;;;;;;;;-0.30;99.90;;;;;;5050342;28;19935;-61
2024/02/06 00:20:19;;;;;;;;;;;-0.30;99.90;;;;;;5048373;28;20351;-63
2024/02/06 00:22:46;;;;;;;;;;;-0.40;99.90;;;;;;5052299;28;19933;-62
2024/02/06 00:25:13;;;;;;;;;;;-0.40;99.90;;;;;;5050612;28;19933;-64
2024/02/06 00:27:40;;;;;;;;;;;-0.40;99.90;;;;;;5049925;28;20335;-61
2024/02/06 00:30:07;;;;;;;;;;;-0.40;99.90;;;;;;5051512;28;19929;-64
2024/02/06 00:32:34;;;;;;;;;;;-0.40;99.90;;;;;;5052694;28;19936;-64
2024/02/06 00:35:00;;;;;;;;;;;-0.50;99.90;;;;;;5050153;28;20016;-62
2024/02/06 00:37:30;;;;;;;;;;;-0.50;99.90;;;;;;5055918;28;20302;-58
2024/02/06 00:39:57;;;;;;;;;;;-0.50;99.90;;;;;;5047378;28;19932;-59
2024/02/06 00:42:24;;;;;;;;;;;-0.50;99.90;;;;;;5052370;28;19936;-64
2024/02/06 00:44:51;;;;;;;;;;;-0.50;99.90;;;;;;5049657;28;20010;-68
2024/02/06 00:47:19;;;;;;;;;;;-0.50;99.90;;;;;;5051426;28;19924;-64
2024/02/06 00:49:45;;;;;;;;;;;-0.50;99.90;;;;;;5051487;28;20302;-64
2024/02/06 00:52:12;;;;;;;;;;;-0.50;99.90;;;;;;5051554;28;19925;-62
2024/02/06 00:54:39;;;;;;;;;;;-0.50;99.90;;;;;;5065924;28;19935;-62
2024/02/06 00:57:06;;;;;;;;;;;-0.50;99.90;;;;;;5052239;28;19924;-60
2024/02/06 00:59:33;;;;;;;;;;;-0.50;99.90;;;;;;5048775;28;19928;-61
2024/02/06 01:02:00;;;;;;;;;;;-0.50;99.90;;;;;;5053886;28;20480;-59
2024/02/06 01:04:27;;;;;;;;;;;-0.50;99.90;;;;;;5050512;28;19924;-58
2024/02/06 01:06:54;;;;;;;;;;;-0.50;99.90;;;;;;5054661;28;19929;-59
2024/02/06 01:09:21;;;;;;;;;;;-0.50;99.90;;;;;;5058685;28;19924;-68
2024/02/06 01:11:48;;;;;;;;;;;-0.50;99.90;;;;;;5051627;28;19981;-61
2024/02/06 01:14:15;;;;;;;;;;;-0.60;99.90;;;;;;5057985;28;20006;-62
2024/02/06 01:16:42;;;;;;;;;;;-0.60;99.90;;;;;;5057330;28;19928;-58
2024/02/06 01:19:09;;;;;;;;;;;-0.60;99.90;;;;;;5053831;28;19955;-62
2024/02/06 01:21:36;;;;;;;;;;;-0.70;99.90;;;;;;5047214;28;20359;-59
2024/02/06 01:24:03;;;;;;;;;;;-0.70;99.90;;;;;;5051334;28;19936;-59
2024/02/06 01:26:29;;;;;;;;;;;-0.70;99.90;;;;;;5061209;28;19932;-59
2024/02/06 01:28:56;;;;;;;;;;;-0.70;99.90;;;;;;5061699;28;20059;-58
2024/02/06 01:31:25;;;;;;;;;;;-0.70;99.90;;;;;;5058685;28;19928;-59
2024/02/06 01:33:52;;;;;;;;;;;-0.70;99.90;;;;;;5056893;28;19924;-58
2024/02/06 01:36:19;;;;;;;;;;;-0.80;99.90;;;;;;5056138;28;19928;-61
2024/02/06 01:38:46;;;;;;;;;;;-0.80;99.90;;;;;;5056559;28;20525;-61
2024/02/06 01:41:12;;;;;;;;;;;-0.80;99.90;;;;;;5057801;28;20031;-64
2024/02/06 01:43:39;;;;;;;;;;;-0.80;99.90;;;;;;5058358;28;19932;-60
2024/02/06 01:46:06;;;;;;;;;;;-0.90;99.90;;;;;;5060913;28;19932;-59
2024/02/06 01:48:33;;;;;;;;;;;-0.90;99.90;;;;;;5057553;28;19928;-59
2024/02/06 01:51:01;;;;;;;;;;;-0.90;99.90;;;;;;5057049;28;20389;-61
2024/02/06 01:53:28;;;;;;;;;;;-1.00;99.90;;;;;;5053344;28;19979;-58
2024/02/06 01:55:54;;;;;;;;;;;-1.00;99.90;;;;;;5055450;28;19948;-62
2024/02/06 01:58:22;;;;;;;;;;;-1.20;99.90;;;;;;5058441;28;19928;-59
2024/02/06 02:00:49;;;;;;;;;;;-1.40;99.90;;;;;;5055939;28;20011;-58
2024/02/06 02:03:16;;;;;;;;;;;-1.50;99.90;;;;;;5057228;28;19971;-64
2024/02/06 02:05:44;;;;;;;;;;;-1.70;99.90;;;;;;5050488;28;20272;-58
2024/02/06 02:08:11;;;;;;;;;;;-1.70;99.90;;;;;;5056946;28;19924;-58
2024/02/06 02:10:39;;;;;;;;;;;-1.90;99.90;;;;;;5053397;28;20039;-62
2024/02/06 02:13:07;;;;;;;;;;;-1.90;99.90;;;;;;5054725;28;20015;-62
2024/02/06 02:15:34;;;;;;;;;;;-2.00;99.90;;;;;;5051052;28;19925;-59
2024/02/06 02:18:01;;;;;;;;;;;-2.10;99.90;;;;;;5054356;28;19935;-58
2024/02/06 02:20:28;;;;;;;;;;;-2.20;99.90;;;;;;5053316;28;20024;-60
2024/02/06 02:22:54;;;;;;;;;;;-2.30;99.90;;;;;;5052315;28;19928;-58
2024/02/06 02:25:21;;;;;;;;;;;-2.40;99.90;;;;;;5054868;28;19940;-60
2024/02/06 02:27:48;;;;;;;;;;;-2.40;99.90;;;;;;5057369;28;19925;-60
2024/02/06 02:30:16;;;;;;;;;;;-2.50;99.90;;;;;;5054799;28;20019;-60
2024/02/06 02:32:44;;;;;;;;;;;-2.50;99.90;;;;;;5053584;28;20015;-59
2024/02/06 02:35:12;;;;;;;;;;;-2.60;99.90;;;;;;5053763;28;21333;-61
2024/02/06 02:37:40;;;;;;;;;;;-2.60;99.90;;;;;;5053360;28;19925;-61
2024/02/06 02:40:07;;;;;;;;;;;-2.70;99.90;;;;;;5052734;28;20279;-59
2024/02/06 02:42:34;;;;;;;;;;;-2.70;99.90;;;;;;5055152;28;19928;-61
2024/02/06 02:45:00;;;;;;;;;;;-2.70;99.90;;;;;;5050137;28;19982;-58
2024/02/06 02:47:27;;;;;;;;;;;-2.80;99.90;;;;;;5049690;28;20014;-58
2024/02/06 02:49:54;;;;;;;;;;;-2.80;99.90;;;;;;5047081;28;19971;-66
2024/02/06 02:52:21;;;;;;;;;;;-2.80;99.90;;;;;;5058666;28;19998;-60
2024/02/06 02:54:48;;;;;;;;;;;-2.90;99.90;;;;;;5050065;28;19929;-63
2024/02/06 02:57:14;;;;;;;;;;;-2.90;99.90;;;;;;5047223;28;19925;-67
2024/02/06 02:59:41;;;;;;;;;;;-3.00;99.90;;;;;;5048984;28;19925;-58
2024/02/06 03:02:08;;;;;;;;;;;-3.00;99.90;;;;;;5057961;28;20724;-65
2024/02/06 03:04:35;;;;;;;;;;;-3.00;99.90;;;;;;5062358;28;20279;-62
2024/02/06 03:07:02;;;;;;;;;;;-3.10;99.90;;;;;;5055091;28;19925;-58
2024/02/06 03:09:28;;;;;;;;;;;-3.10;99.90;;;;;;5051221;28;19929;-58
2024/02/06 03:11:55;;;;;;;;;;;-3.20;99.90;;;;;;5054464;28;19968;-60
2024/02/06 03:14:22;;;;;;;;;;;-3.20;99.90;;;;;;5041349;28;19972;-58
2024/02/06 03:16:49;;;;;;;;;;;-3.20;99.90;;;;;;5048694;28;20015;-58
2024/02/06 03:19:16;;;;;;;;;;;-3.30;99.90;;;;;;5049313;28;20414;-63
2024/02/06 03:21:43;;;;;;;;;;;-3.40;99.90;;;;;;5052008;28;19964;-64
2024/02/06 03:24:09;;;;;;;;;;;-3.40;99.90;;;;;;5050975;28;19960;-62
2024/02/06 03:26:36;;;;;;;;;;;-3.50;99.90;;;;;;5057836;28;20682;-58
2024/02/06 03:29:03;;;;;;;;;;;-3.50;99.90;;;;;;5052685;28;20671;-58
2024/02/06 03:31:30;;;;;;;;;;;-3.60;99.90;;;;;;5056002;28;20409;-62
2024/02/06 03:33:56;;;;;;;;;;;-3.60;99.90;;;;;;5056649;28;20365;-58
2024/02/06 03:36:23;;;;;;;;;;;-3.60;99.90;;;;;;5053887;28;19931;-58
2024/02/06 03:38:50;;;;;;;;;;;-3.60;99.90;;;;;;5052911;28;20451;-58
2024/02/06 03:41:17;;;;;;;;;;;-3.70;99.90;;;;;;5055562;28;19925;-73
2024/02/06 03:43:44;;;;;;;;;;;-3.70;99.90;;;;;;5059279;28;19924;-58
2024/02/06 03:46:11;;;;;;;;;;;-3.70;99.90;;;;;;5054323;28;19925;-61
2024/02/06 03:48:38;;;;;;;;;;;-3.80;99.90;;;;;;5053822;28;19925;-58
2024/02/06 03:51:05;;;;;;;;;;;-3.80;99.90;;;;;;5052645;28;19932;-60
2024/02/06 03:53:32;;;;;;;;;;;-3.80;99.90;;;;;;5048243;28;19932;-61
2024/02/06 03:55:59;;;;;;;;;;;-3.90;99.90;;;;;;5052141;28;19955;-61
2024/02/06 03:58:25;;;;;;;;;;;-3.90;99.90;;;;;;5051121;28;19998;-59
2024/02/06 04:00:52;;;;;;;;;;;-3.90;99.90;;;;;;5049399;28;20014;-59
2024/02/06 04:03:19;;;;;;;;;;;-4.00;99.90;;;;;;5053511;28;19929;-60
2024/02/06 04:05:46;;;;;;;;;;;-4.00;99.90;;;;;;5047842;28;20375;-69
2024/02/06 04:08:13;;;;;;;;;;;-4.00;99.90;;;;;;5049942;28;19936;-61
2024/02/06 04:10:40;;;;;;;;;;;-4.00;99.90;;;;;;5052850;28;19925;-58
2024/02/06 04:13:08;;;;;;;;;;;-4.00;99.90;;;;;;5053071;28;19925;-61
2024/02/06 04:15:35;;;;;;;;;;;-4.00;99.90;;;;;;5047519;28;20007;-59
2024/02/06 04:18:04;;;;;;;;;;;-4.00;99.90;;;;;;5053953;28;19931;-62
2024/02/06 04:20:34;;;;;;;;;;;-4.00;99.90;;;;;;5048880;28;19925;-58
2024/02/06 04:23:01;;;;;;;;;;;-4.10;99.90;;;;;;5053067;28;19955;-60
2024/02/06 04:25:28;;;;;;;;;;;-4.10;99.90;;;;;;5051860;28;20040;-60
2024/02/06 04:27:55;;;;;;;;;;;-4.10;99.90;;;;;;5047291;28;19939;-63
2024/02/06 04:30:23;;;;;;;;;;;-4.10;99.90;;;;;;5049116;28;20049;-58
2024/02/06 04:32:51;;;;;;;;;;;-4.20;99.90;;;;;;5051344;28;19968;-61
2024/02/06 04:35:19;;;;;;;;;;;-4.20;99.90;;;;;;5052941;28;19936;-59
2024/02/06 04:37:46;;;;;;;;;;;-4.20;99.90;;;;;;5051885;28;19940;-60
2024/02/06 04:40:13;;;;;;;;;;;-4.20;99.90;;;;;;5045910;28;19924;-63
2024/02/06 04:42:39;;;;;;;;;;;-4.30;99.90;;;;;;5052050;28;19971;-61
2024/02/06 04:45:06;;;;;;;;;;;-4.30;99.90;;;;;;5048616;28;19932;-65
2024/02/06 04:47:33;;;;;;;;;;;-4.30;99.90;;;;;;5048092;28;20019;-65
2024/02/06 04:50:00;;;;;;;;;;;-4.30;99.90;;;;;;5060308;28;19929;-66
2024/02/06 04:52:27;;;;;;;;;;;-4.30;99.90;;;;;;5047641;28;19925;-70
2024/02/06 04:54:54;;;;;;;;;;;-4.30;99.90;;;;;;5046318;28;19928;-64
2024/02/06 04:57:21;;;;;;;;;;;-4.40;99.90;;;;;;5047532;28;19929;-62
2024/02/06 04:59:48;;;;;;;;;;;-4.40;99.90;;;;;;5058759;28;19960;-63
2024/02/06 05:02:15;;;;;;;;;;;-4.40;99.90;;;;;;5051484;28;19951;-67
2024/02/06 05:04:41;;;;;;;;;;;-4.40;99.90;;;;;;5054798;28;19974;-67
2024/02/06 05:07:09;;;;;;;;;;;-4.40;99.90;;;;;;5054329;28;20027;-63
2024/02/06 05:09:36;;;;;;;;;;;-4.40;99.90;;;;;;5056545;28;19981;-58
2024/02/06 05:12:03;;;;;;;;;;;-4.40;99.90;;;;;;5055370;28;20012;-60
2024/02/06 05:14:30;;;;;;;;;;;-4.40;99.90;;;;;;5053304;28;19925;-63
2024/02/06 05:16:57;;;;;;;;;;;-4.50;99.90;;;;;;5053900;28;20435;-61
2024/02/06 05:19:24;;;;;;;;;;;-4.50;99.90;;;;;;5059110;28;19935;-59
2024/02/06 05:21:51;;;;;;;;;;;-4.50;99.90;;;;;;5061534;28;19929;-63
2024/02/06 05:24:18;;;;;;;;;;;-4.60;99.90;;;;;;5056877;28;20029;-63
2024/02/06 05:26:45;;;;;;;;;;;-4.60;99.90;;;;;;5059983;28;20016;-61
2024/02/06 05:29:11;;;;;;;;;;;-4.60;99.90;;;;;;5053938;28;20007;-61
2024/02/06 05:31:38;;;;;;;;;;;-4.70;99.90;;;;;;5055029;28;19935;-63
2024/02/06 05:34:05;;;;;;;;;;;-4.70;99.90;;;;;;5054135;28;19929;-60
2024/02/06 05:36:32;;;;;;;;;;;-4.70;99.90;;;;;;5052849;28;19932;-72
2024/02/06 05:38:59;;;;;;;;;;;-4.70;99.90;;;;;;5058117;28;19932;-57
2024/02/06 05:41:27;;;;;;;;;;;-4.70;99.90;;;;;;5053114;28;19994;-60
2024/02/06 05:43:54;;;;;;;;;;;-4.70;99.90;;;;;;5053910;28;19928;-60
2024/02/06 05:46:20;;;;;;;;;;;-4.70;99.90;;;;;;5060390;28;19933;-59
2024/02/06 05:48:47;;;;;;;;;;;-4.70;99.90;;;;;;5053453;28;19971;-61
2024/02/06 05:51:14;;;;;;;;;;;-4.70;99.90;;;;;;5051249;28;19933;-58
2024/02/06 05:53:41;;;;;;;;;;;-4.80;99.90;;;;;;5053159;28;19990;-57
2024/02/06 05:56:08;;;;;;;;;;;-4.80;99.90;;;;;;5050763;28;19925;-62
2024/02/06 05:58:38;;;;;;;;;;;-4.70;99.90;;;;;;5062199;28;19924;-65
2024/02/06 06:01:05;;;;;;;;;;;-4.70;99.90;;;;;;5049010;28;20023;-61
2024/02/06 06:03:31;;;;;;;;;;;-4.70;99.90;;;;;;5052045;28;20347;-62
2024/02/06 06:05:58;;;;;;;;;;;-4.80;99.90;;;;;;5057696;28;19929;-61
2024/02/06 06:08:26;;;;;;;;;;;-4.80;99.90;;;;;;5052340;28;20024;-58
2024/02/06 06:10:52;;;;;;;;;;;-4.80;99.90;;;;;;5050610;28;20450;-59
2024/02/06 06:13:19;;;;;;;;;;;-4.80;99.90;;;;;;5050106;28;19932;-61
2024/02/06 06:15:46;;;;;;;;;;;-4.80;99.90;;;;;;5049185;28;19939;-58
2024/02/06 06:18:13;;;;;;;;;;;-4.80;99.90;;;;;;5048541;28;19987;-58
2024/02/06 06:20:40;;;;;;;;;;;-4.90;99.90;;;;;;5047116;28;19929;-58
2024/02/06 06:23:08;;;;;;;;;;;-4.90;99.90;;;;;;5054712;28;21112;-59
2024/02/06 06:25:35;;;;;;;;;;;-4.90;99.90;;;;;;5060507;28;19929;-57
2024/02/06 06:28:04;;;;;;;;;;;-4.90;99.90;;;;;;5056238;28;19928;-63
2024/02/06 06:30:30;;;;;;;;;;;-4.90;99.90;;;;;;5050405;28;19924;-60
2024/02/06 06:32:57;;;;;;;;;;;-4.90;99.90;;;;;;5058049;28;19928;-58
2024/02/06 06:35:24;;;;;;;;;;;-5.00;99.90;;;;;;5055640;28;19944;-58
2024/02/06 06:37:51;;;;;;;;;;;-5.00;99.90;;;;;;5060866;28;19925;-61
2024/02/06 06:40:18;;;;;;;;;;;-4.90;99.90;;;;;;5054572;28;19975;-63
2024/02/06 06:42:45;;;;;;;;;;;-5.00;99.90;;;;;;5057531;28;19932;-60
2024/02/06 06:45:12;;;;;;;;;;;-5.00;99.90;;;;;;5048197;28;20461;-67
2024/02/06 06:47:39;;;;;;;;;;;-4.90;99.90;;;;;;5061933;28;19924;-63
2024/02/06 06:50:06;;;;;;;;;;;-5.00;99.90;;;;;;5052019;28;20142;-61
2024/02/06 06:52:33;;;;;;;;;;;-4.90;99.90;;;;;;5054415;28;19940;-59
2024/02/06 06:55:00;;;;;;;;;;;-4.90;99.90;;;;;;5052099;28;19936;-67
2024/02/06 06:57:27;;;;;;;;;;;-4.90;99.90;;;;;;5050082;28;20344;-68
2024/02/06 06:59:54;;;;;;;;;;;-4.90;99.90;;;;;;5051439;28;19925;-58
2024/02/06 07:02:21;;;;;;;;;;;-4.90;99.90;;;;;;5056028;28;19924;-63
2024/02/06 07:04:48;;;;;;;;;;;-4.80;99.90;;;;;;5055505;28;19963;-60
2024/02/06 07:07:15;;;;;;;;;;;-4.80;99.90;;;;;;5054303;28;20283;-65
2024/02/06 07:09:42;;;;;;;;;;;-4.80;99.90;;;;;;5055951;28;19964;-63
2024/02/06 07:12:09;;;;;;;;;;;-4.70;99.90;;;;;;5054438;28;20437;-58
2024/02/06 07:14:37;;;;;;;;;;;-4.70;99.90;;;;;;5053257;28;19951;-65
2024/02/06 07:17:05;;;;;;;;;;;-4.70;99.90;;;;;;5048721;28;20385;-60
2024/02/06 07:19:32;;;;;;;;;;;-4.60;99.90;;;;;;5055227;28;19939;-61
2024/02/06 07:21:59;;;;;;;;;;;-4.60;99.90;;;;;;5051510;28;20131;-63
2024/02/06 07:24:26;;;;;;;;;;;-4.60;99.90;;;;;;5048009;28;20291;-62
2024/02/06 07:26:53;;;;;;;;;;;-4.50;99.90;;;;;;5050898;28;19977;-65
2024/02/06 07:29:20;;;;;;;;;;;-4.50;99.90;;;;;;5052707;28;19928;-65
2024/02/06 07:31:47;;;;;;;;;;;-4.40;99.90;;;;;;5053408;28;19937;-58
2024/02/06 07:34:14;;;;;;;;;;;-4.40;99.90;;;;;;5052503;28;19925;-60
2024/02/06 07:36:41;;;;;;;;;;;-4.30;99.90;;;;;;5050596;28;19929;-61
2024/02/06 07:39:08;;;;;;;;;;;-4.30;99.90;;;;;;5054911;28;19929;-59
2024/02/06 07:41:35;;;;;;;;;;;-4.20;99.90;;;;;;5053600;28;19932;-58
2024/02/06 07:44:03;;;;;;;;;;;-4.10;99.90;;;;;;5053493;28;19929;-66
2024/02/06 07:46:31;;;;;;;;;;;-4.10;99.90;;;;;;5052120;28;19929;-58
2024/02/06 07:48:57;;;;;;;;;;;-4.00;99.90;;;;;;5051710;28;20020;-58
2024/02/06 07:51:25;;;;;;;;;;;-3.90;99.90;;;;;;5052553;28;19924;-61
2024/02/06 07:53:52;;;;;;;;;;;-3.80;99.90;;;;;;5050356;28;20009;-61
2024/02/06 07:56:19;;;;;;;;;;;-3.80;99.90;;;;;;5051875;28;19983;-66
2024/02/06 07:58:46;;;;;;;;;;;-3.70;99.90;;;;;;5050015;28;19932;-58
2024/02/06 08:01:13;;;;;;;;;;;-3.50;99.90;;;;;;5049429;28;19928;-62
2024/02/06 08:03:40;;;;;;;;;;;-3.50;99.90;;;;;;5051772;28;19937;-60
2024/02/06 08:06:07;;;;;;;;;;;-3.40;99.90;;;;;;5053817;28;19968;-58
2024/02/06 08:08:34;;;;;;;;;;;-3.30;99.90;;;;;;5051307;28;19964;-62
2024/02/06 08:11:01;;;;;;;;;;;-3.30;99.90;;;;;;5049435;28;19970;-58
2024/02/06 08:13:28;;;;;;;;;;;-3.20;99.90;;;;;;5054588;28;19932;-60
2024/02/06 08:15:55;;;;;;;;;;;-3.10;99.90;;;;;;5052475;28;19991;-60
2024/02/06 08:18:22;;;;;;;;;;;-3.10;99.90;;;;;;5051520;28;19925;-59
2024/02/06 08:20:49;;;;;;;;;;;-3.00;99.90;;;;;;5053486;28;20355;-59
2024/02/06 08:23:16;;;;;;;;;;;-3.00;99.90;;;;;;5055430;28;20370;-69
2024/02/06 08:25:43;;;;;;;;;;;-3.00;99.90;;;;;;5054155;28;19929;-62
2024/02/06 08:28:10;;;;;;;;;;;-2.90;99.90;;;;;;5056521;28;20362;-60
2024/02/06 08:30:37;;;;;;;;;;;-2.80;99.90;;;;;;5054529;28;20015;-62
2024/02/06 08:33:04;;;;;;;;;;;-2.80;99.90;;;;;;5052996;28;19932;-59
2024/02/06 08:35:31;;;;;;;;;;;-2.70;99.90;;;;;;5053930;28;19928;-59
2024/02/06 08:37:57;;;;;;;;;;;-2.70;99.90;;;;;;5055354;28;20400;-70
2024/02/06 08:40:25;;;;;;;;;;;-2.60;99.90;;;;;;5046860;28;20536;-63
2024/02/06 08:42:51;;;;;;;;;;;-2.50;99.90;;;;;;5051900;28;19960;-58
2024/02/06 08:45:18;;;;;;;;;;;-2.50;99.90;;;;;;5056928;28;20010;-64
2024/02/06 08:47:45;;;;;;;;;;;-2.40;99.90;;;;;;5057229;28;19929;-59
2024/02/06 08:50:12;;;;;;;;;;;-2.40;99.90;;;;;;5053613;28;20052;-58
2024/02/06 08:52:39;;;;;;;;;;;-2.30;99.90;;;;;;5057917;28;19933;-60
2024/02/06 08:55:08;;;;;;;;;;;-2.20;99.90;;;;;;5063869;28;20601;-60
2024/02/06 08:57:36;;;;;;;;;;;-2.20;99.90;;;;;;5049607;28;19975;-58
2024/02/06 09:00:04;;;;;;;;;;;-2.10;99.90;;;;;;5054688;28;19932;-63
2024/02/06 09:02:31;;;;;;;;;;;-2.10;99.90;;;;;;5055935;28;19932;-61
2024/02/06 09:04:58;;;;;;;;;;;-2.00;99.90;;;;;;5062978;28;19943;-61
2024/02/06 09:07:25;;;;;;;;;;;-2.00;99.90;;;;;;5054957;28;20010;-58
2024/02/06 09:09:55;;;;;;;;;;;-1.90;99.90;;;;;;5051277;28;19964;-64
2024/02/06 09:12:23;;;;;;;;;;;-1.90;99.90;;;;;;5050098;28;19935;-67
2024/02/06 09:14:50;;;;;;;;;;;-1.80;99.90;;;;;;5052821;28;19932;-59
2024/02/06 09:17:17;;;;;;;;;;;-1.80;99.90;;;;;;5046772;28;19928;-62
2024/02/06 09:19:43;;;;;;;;;;;-1.70;99.90;;;;;;5051257;28;19970;-65
2024/02/06 09:22:11;;;;;;;;;;;-1.60;99.90;;;;;;5056844;28;19936;-58
2024/02/06 09:24:37;;;;;;;;;;;-1.60;99.90;;;;;;5057387;28;20294;-58
2024/02/06 09:27:04;;;;;;;;;;;-1.50;99.90;;;;;;5053647;28;19931;-62
2024/02/06 09:29:31;;;;;;;;;;;-1.50;99.90;;;;;;5054935;28;19982;-60
2024/02/06 09:31:58;;;;;;;;;;;-1.40;99.90;;;;;;5054410;28;19933;-59
2024/02/06 09:34:25;;;;;;;;;;;-1.30;99.90;;;;;;5049603;28;20031;-65
2024/02/06 09:36:52;;;;;;;;;;;-1.30;99.90;;;;;;5059239;28;20405;-68
2024/02/06 09:39:18;;;;;;;;;;;-1.30;99.90;;;;;;5056107;28;19994;-59
2024/02/06 09:41:49;;;;;;;;;;;-1.20;99.90;;;;;;5053704;28;20406;-59
2024/02/06 09:44:16;;;;;;;;;;;-1.20;99.90;;;;;;5052781;28;19924;-60
2024/02/06 09:46:49;;;;;;;;;;;-1.10;99.90;;;;;;5056519;28;20287;-60
2024/02/06 09:49:17;;;;;;;;;;;-1.00;99.90;;;;;;5056102;28;20030;-63
2024/02/06 09:51:44;;;;;;;;;;;-1.00;99.90;;;;;;5056752;28;19928;-58
2024/02/06 09:54:12;;;;;;;;;;;-1.00;99.90;;;;;;5055863;28;19982;-60
2024/02/06 09:56:40;;;;;;;;;;;-1.00;99.90;;;;;;5058049;28;20454;-62
2024/02/06 09:59:07;;;;;;;;;;;-1.00;99.90;;;;;;5062612;28;19925;-60
2024/02/06 10:01:35;;;;;;;;;;;-0.90;99.90;;;;;;5056000;28;19967;-79
2024/02/06 10:04:04;;;;;;;;;;;-0.90;99.90;;;;;;5061007;28;19924;-60
2024/02/06 10:06:31;;;;;;;;;;;-0.80;99.90;;;;;;5058946;28;20015;-59
2024/02/06 10:08:58;;;;;;;;;;;-0.80;99.90;;;;;;5056049;28;19935;-63
2024/02/06 10:11:26;;;;;;;;;;;-0.80;99.90;;;;;;5052667;28;20023;-61
2024/02/06 10:13:53;;;;;;;;;;;-0.80;99.90;;;;;;5050838;28;19978;-58
2024/02/06 10:16:20;;;;;;;;;;;-0.80;99.90;;;;;;5050473;28;20270;-59
2024/02/06 10:18:51;;;;;;;;;;;-0.80;99.90;;;;;;5050644;28;19925;-64
2024/02/06 10:21:18;;;;;;;;;;;-0.80;99.90;;;;;;5051983;28;19956;-59
2024/02/06 10:23:46;;;;;;;;;;;-0.80;99.90;;;;;;5053098;28;20031;-62
2024/02/06 10:26:19;;;;;;;;;;;-0.70;99.90;;;;;;5060156;28;20489;-65
2024/02/06 10:28:46;;;;;;;;;;;-0.70;99.90;;;;;;5054550;28;19964;-62
2024/02/06 10:31:13;;;;;;;;;;;-0.80;99.90;;;;;;5055472;28;20019;-61
2024/02/06 10:33:40;;;;;;;;;;;-0.80;99.90;;;;;;5055468;28;21333;-64
2024/02/06 10:36:08;;;;;;;;;;;-0.70;99.90;;;;;;5058079;28;19978;-60
2024/02/06 10:38:35;;;;;;;;;;;-0.70;99.90;;;;;;5055151;28;19960;-60
2024/02/06 10:41:08;;;;;;;;;;;-0.70;99.90;;;;;;5052151;28;19925;-66
2024/02/06 10:43:50;;;;;;;;;;;-0.70;99.90;;;;;;5051186;28;20375;-58
2024/02/06 10:46:21;;;;;;;;;;;-0.60;99.90;;;;;;5048787;28;19933;-62
2024/02/06 10:48:52;;;;;;;;;;;-0.60;99.90;;;;;;5057584;28;19929;-59
2024/02/06 10:51:23;;;;;;;;;;;-0.60;99.90;;;;;;5053095;28;19924;-59
2024/02/06 10:53:57;;;;;;;;;;;-0.60;99.90;;;;;;5045072;28;19997;-65
2024/02/06 10:56:24;;;;;;;;;;;-0.50;99.90;;;;;;5041170;28;19939;-60
2024/02/06 10:58:54;;;;;;;;;;;-0.60;99.90;;;;;;5043841;28;19931;-60
2024/02/06 11:01:21;;;;;;;;;;;-0.60;99.90;;;;;;5044975;28;20691;-68
2024/02/06 11:03:53;;;;;;;;;;;-0.50;99.90;;;;;;5044092;28;19929;-66
2024/02/06 11:06:27;;;;;;;;;;;-0.50;99.90;;;;;;5052110;28;19936;-66
2024/02/06 11:08:55;;;;;;;;;;;-0.50;99.90;;;;;;5049058;28;19925;-64
2024/02/06 11:11:23;;;;;;;;;;;-0.50;99.90;;;;;;5050625;28;20378;-68
2024/02/06 11:13:50;;;;;;;;;;;-0.50;99.90;;;;;;5054597;28;20023;-66
2024/02/06 11:16:18;;;;;;;;;;;-0.50;99.90;;;;;;5051030;28;19935;-67
2024/02/06 11:18:48;;;;;;;;;;;-0.50;99.90;;;;;;5048732;28;20062;-68
2024/02/06 11:21:17;;;;;;;;;;;-0.40;99.90;;;;;;5054039;28;19924;-72
2024/02/06 11:23:44;;;;;;;;;;;-0.40;99.90;;;;;;5049946;28;19932;-67
2024/02/06 11:26:11;;;;;;;;;;;-0.40;99.90;;;;;;5054416;28;19975;-60
2024/02/06 11:28:38;;;;;;;;;;;-0.40;99.90;;;;;;5053482;28;19925;-65
2024/02/06 11:31:05;;;;;;;;;;;-0.30;99.90;;;;;;5047531;28;19933;-60
2024/02/06 11:33:35;;;;;;;;;;;-0.40;99.90;;;;;;5051553;28;20019;-59
2024/02/06 11:36:10;;;;;;;;;;;-0.30;99.90;;;;;;5049501;28;19929;-60
2024/02/06 11:38:37;;;;;;;;;;;-0.30;99.90;;;;;;5049010;28;19932;-62
2024/02/06 11:41:22;;;;;;;;;;;-0.30;99.90;;;;;;5053091;28;19932;-59
2024/02/06 11:43:51;;;;;;;;;;;-0.30;99.90;;;;;;5045595;28;19925;-59
2024/02/06 11:46:22;;;;;;;;;;;-0.20;99.90;;;;;;5053677;28;19935;-62
2024/02/06 11:48:49;;;;;;;;;;;-0.20;99.90;;;;;;5056501;28;19960;-60
2024/02/06 11:51:25;;;;;;;;;;;-0.20;99.90;;;;;;5052796;28;19928;-62
2024/02/06 11:53:52;;;;;;;;;;;-0.20;99.90;;;;;;5058623;28;19925;-59
2024/02/06 11:56:19;;;;;;;;;;;-0.20;99.90;;;;;;5053993;28;20585;-62
2024/02/06 11:58:46;;;;;;;;;;;-0.10;99.90;;;;;;5050939;28;19925;-60
2024/02/06 12:01:23;;;;;;;;;;;-0.10;99.90;;;;;;5050721;28;19968;-63
2024/02/06 12:04:02;;;;;;;;;;;-0.10;99.90;;;;;;5023924;28;20491;-59
2024/02/06 12:06:29;;;;;;;;;;;-0.20;99.90;;;;;;5049102;28;19971;-62
2024/02/06 12:08:59;;;;;;;;;;;-0.20;99.90;;;;;;5055042;28;20019;-64
2024/02/06 12:11:26;;;;;;;;;;;-0.20;99.90;;;;;;5055558;28;19932;-61
2024/02/06 12:13:53;;;;;;;;;;;-0.20;99.90;;;;;;5049576;28;19929;-66
2024/02/06 12:16:21;;;;;;;;;;;-0.20;99.90;;;;;;5039935;28;19932;-68
2024/02/06 12:18:49;;;;;;;;;;;-0.20;99.90;;;;;;5046939;28;19937;-64
2024/02/06 12:21:21;;;;;;;;;;;-0.20;99.90;;;;;;5047000;28;19960;-63
2024/02/06 12:23:48;;;;;;;;;;;-0.20;99.90;;;;;;5048029;28;19929;-64
2024/02/06 12:26:23;;;;;;;;;;;-0.20;99.90;;;;;;5055306;28;19925;-64
2024/02/06 12:28:59;;;;;;;;;;;-0.20;99.90;;;;;;5051195;28;19968;-65
2024/02/06 12:31:27;;;;;;;;;;;-0.20;99.90;;;;;;5053259;28;19929;-67
2024/02/06 12:33:54;;;;;;;;;;;-0.20;99.90;;;;;;5052635;28;19968;-65
2024/02/06 12:36:21;;;;;;;;;;;-0.30;99.90;;;;;;5055965;28;19967;-60
2024/02/06 12:38:52;;;;;;;;;;;-0.30;99.90;;;;;;5054741;28;19929;-63
2024/02/06 12:41:19;;;;;;;;;;;-0.30;99.90;;;;;;5052295;28;19929;-64
2024/02/06 12:43:49;;;;;;;;;;;-0.30;99.90;;;;;;5048666;28;19982;-61
2024/02/06 12:46:16;;;;;;;;;;;-0.30;99.90;;;;;;5052879;28;19933;-60
2024/02/06 12:48:44;;;;;;;;;;;-0.30;99.90;;;;;;5059133;28;19928;-77
2024/02/06 12:51:11;;;;;;;;;;;-0.30;99.90;;;;;;5049498;28;19937;-61
2024/02/06 12:53:37;;;;;;;;;;;-0.30;99.90;;;;;;5037174;28;19929;-63
2024/02/06 12:56:04;;;;;;;;;;;-0.30;99.90;;;;;;5052993;28;19986;-61
2024/02/06 12:58:34;;;;;;;;;;;-0.30;99.90;;;;;;5047040;28;19925;-60
2024/02/06 13:01:01;;;;;;;;;;;-0.30;99.90;;;;;;5050913;28;19925;-66
2024/02/06 13:03:40;;;;;;;;;;;-0.30;99.90;;;;;;5056780;28;19933;-61
2024/02/06 13:06:08;;;;;;;;;;;-0.30;99.90;;;;;;5051261;28;19928;-70
2024/02/06 13:08:45;;;;;;;;;;;-0.30;99.90;;;;;;5046620;28;19936;-68
2024/02/06 13:11:12;;;;;;;;;;;-0.30;99.90;;;;;;5051424;28;19929;-61
2024/02/06 13:13:40;;;;;;;;;;;-0.30;99.90;;;;;;5047959;28;20354;-69
2024/02/06 13:16:07;;;;;;;;;;;-0.30;99.90;;;;;;5046930;28;20018;-61
2024/02/06 13:18:37;;;;;;;;;;;-0.30;99.90;;;;;;5050811;28;20011;-65
2024/02/06 13:21:05;;;;;;;;;;;-0.30;99.90;;;;;;5051145;28;19925;-60
2024/02/06 13:23:32;;;;;;;;;;;-0.30;99.90;;;;;;5053132;28;20042;-60
2024/02/06 13:25:59;;;;;;;;;;;-0.30;99.90;;;;;;5048729;28;19956;-61
2024/02/06 13:28:26;;;;;;;;;;;-0.30;99.90;;;;;;5054447;28;20299;-71
2024/02/06 13:30:53;;;;;;;;;;;-0.30;99.90;;;;;;5050568;28;20405;-63
2024/02/06 13:33:20;;;;;;;;;;;-0.30;99.90;;;;;;5053269;28;20010;-62
2024/02/06 13:35:47;;;;;;;;;;;-0.30;99.90;;;;;;5052650;28;19933;-63
2024/02/06 13:38:14;;;;;;;;;;;-0.30;99.90;;;;;;5055151;28;19929;-60
2024/02/06 13:40:41;;;;;;;;;;;-0.30;99.90;;;;;;5050746;28;19963;-60
2024/02/06 13:43:08;;;;;;;;;;;-0.30;99.90;;;;;;5059485;28;19954;-62
2024/02/06 13:45:34;;;;;;;;;;;-0.30;99.90;;;;;;5053581;28;19935;-68
2024/02/06 13:48:02;;;;;;;;;;;-0.30;99.90;;;;;;5050805;28;19942;-60
2024/02/06 13:50:29;;;;;;;;;;;-0.30;99.90;;;;;;5054824;28;19928;-60
2024/02/06 13:52:56;;;;;;;;;;;-0.30;99.90;;;;;;5056563;28;20026;-62
2024/02/06 13:55:30;;;;;;;;;;;-0.30;99.90;;;;;;5052712;28;19929;-65
2024/02/06 13:57:58;;;;;;;;;;;-0.30;99.90;;;;;;5058579;28;19935;-59
2024/02/06 14:00:25;;;;;;;;;;;-0.30;99.90;;;;;;5054034;28;19978;-68
2024/02/06 14:02:52;;;;;;;;;;;-0.30;99.90;;;;;;5055706;28;20330;-66
2024/02/06 14:05:19;;;;;;;;;;;-0.30;99.90;;;;;;5059447;28;19928;-62
2024/02/06 14:07:48;;;;;;;;;;;-0.30;99.90;;;;;;5053561;28;20379;-65
2024/02/06 14:10:15;;;;;;;;;;;-0.30;99.90;;;;;;5052450;28;19988;-62
2024/02/06 14:12:42;;;;;;;;;;;-0.30;99.90;;;;;;5059704;28;20401;-64
2024/02/06 14:15:17;;;;;;;;;;;-0.30;99.90;;;;;;5053931;28;19970;-73
2024/02/06 14:17:45;;;;;;;;;;;-0.30;99.90;;;;;;5055855;28;20028;-67